sensor_id;sensor_type;location;lat;lon;timestamp;pressure;altitude;pressure_sealevel;temperature;humidity
73306;BME280;61530;51.158;0.880;2023-05-21T00:01:00;1017.86;;;11.0625;37.8447
73306;BME280;61530;51.158;0.880;2023-05-21T00:02:06;1017.84;;;11.0;36.6928
73306;BME280;61530;51.158;0.880;2023-05-21T00:03:09;1017.83;;;11.0;37.9837
73306;BME280;61530;51.158;0.880;2023-05-21T00:04:13;1017.85;;;10.875;37.6368
73306;BME280;61530;51.158;0.880;2023-05-21T00:05:16;1017.86;;;10.9375;37.1812
73306;BME280;61530;51.158;0.880;2023-05-21T00:06:22;1017.86;;;10.9375;38.0692
73306;BME280;61530;51.158;0.880;2023-05-21T00:07:25;1017.86;;;11.0;37.7071
73306;BME280;61530;51.158;0.880;2023-05-21T00:08:29;1017.85;;;10.9375;38.2944
73306;BME280;61530;51.158;0.880;2023-05-21T00:09:32;1017.91;;;10.875;38.0578
73306;BME280;61530;51.158;0.880;2023-05-21T00:10:38;1017.87;;;11.0;37.8844
73306;BME280;61530;51.158;0.880;2023-05-21T00:11:41;1017.88;;;11.0;37.0732
73306;BME280;61530;51.158;0.880;2023-05-21T00:12:45;1017.93;;;10.9375;37.226
73306;BME280;61530;51.158;0.880;2023-05-21T00:13:48;1017.94;;;11.0;38.5012
73306;BME280;61530;51.158;0.880;2023-05-21T00:14:54;1017.98;;;11.0;37.0824
73306;BME280;61530;51.158;0.880;2023-05-21T00:15:57;1017.94;;;10.9375;37.2422
73306;BME280;61530;51.158;0.880;2023-05-21T00:17:01;1017.95;;;11.0;37.5206
73306;BME280;61530;51.158;0.880;2023-05-21T00:18:04;1017.95;;;11.0625;37.4035
73306;BME280;61530;51.158;0.880;2023-05-21T00:19:10;1018.01;;;11.0625;37.9292
73306;BME280;61530;51.158;0.880;2023-05-21T00:20:13;1018.01;;;11.0625;38.2024
73306;BME280;61530;51.158;0.880;2023-05-21T00:21:17;1017.98;;;11.0625;38.6166
73306;BME280;61530;51.158;0.880;2023-05-21T00:22:20;1017.97;;;11.0;38.1046
73306;BME280;61530;51.158;0.880;2023-05-21T00:23:26;1017.96;;;11.0625;37.734
73306;BME280;61530;51.158;0.880;2023-05-21T00:24:29;1017.95;;;11.0;39.4855
73306;BME280;61530;51.158;0.880;2023-05-21T00:25:33;1017.95;;;11.0625;37.4921
73306;BME280;61530;51.158;0.880;2023-05-21T00:26:36;1017.96;;;10.9375;38.2825
73306;BME280;61530;51.158;0.880;2023-05-21T00:27:41;1017.96;;;10.9375;38.3335
73306;BME280;61530;51.158;0.880;2023-05-21T00:28:45;1017.95;;;11.0;38.1255
73306;BME280;61530;51.158;0.880;2023-05-21T00:29:49;1017.93;;;11.0;38.3162
73306;BME280;61530;51.158;0.880;2023-05-21T00:30:52;1017.93;;;11.0;37.9118
73306;BME280;61530;51.158;0.880;2023-05-21T00:31:58;1017.95;;;11.0;37.0628
73306;BME280;61530;51.158;0.880;2023-05-21T00:33:01;1017.92;;;11.0;37.6105
73306;BME280;61530;51.158;0.880;2023-05-21T00:34:05;1017.91;;;11.0625;37.3741
73306;BME280;61530;51.158;0.880;2023-05-21T00:35:08;1017.91;;;11.0625;37.287
73306;BME280;61530;51.158;0.880;2023-05-21T00:36:14;1017.9;;;11.0625;36.6246
73306;BME280;61530;51.158;0.880;2023-05-21T00:37:17;1017.9;;;11.0625;36.6994
73306;BME280;61530;51.158;0.880;2023-05-21T00:38:21;1017.89;;;11.0;36.8266
73306;BME280;61530;51.158;0.880;2023-05-21T00:39:24;1017.92;;;11.0;37.4364
73306;BME280;61530;51.158;0.880;2023-05-21T00:40:30;1017.91;;;11.0625;37.6462
73306;BME280;61530;51.158;0.880;2023-05-21T00:41:33;1017.88;;;11.0625;37.9473
73306;BME280;61530;51.158;0.880;2023-05-21T00:42:37;1017.91;;;11.0625;38.4198
73306;BME280;61530;51.158;0.880;2023-05-21T00:43:40;1017.9;;;11.0;36.9175
73306;BME280;61530;51.158;0.880;2023-05-21T00:44:46;1017.91;;;11.0;38.9961
73306;BME280;61530;51.158;0.880;2023-05-21T00:45:49;1017.89;;;11.0;38.0508
73306;BME280;61530;51.158;0.880;2023-05-21T00:46:53;1017.89;;;11.0;38.5174
73306;BME280;61530;51.158;0.880;2023-05-21T00:47:57;1017.9;;;10.9375;37.6643
73306;BME280;61530;51.158;0.880;2023-05-21T00:49:02;1017.89;;;11.0;37.1512
73306;BME280;61530;51.158;0.880;2023-05-21T00:50:06;1017.89;;;11.0625;37.4273
73306;BME280;61530;51.158;0.880;2023-05-21T00:51:09;1017.88;;;11.0;37.7182
73306;BME280;61530;51.158;0.880;2023-05-21T00:52:12;1017.87;;;11.0625;38.4428
73306;BME280;61530;51.158;0.880;2023-05-21T00:53:18;1017.8;;;10.9375;36.7849
73306;BME280;61530;51.158;0.880;2023-05-21T00:54:23;1017.79;;;11.0;37.4657
73306;BME280;61530;51.158;0.880;2023-05-21T00:55:25;1017.81;;;11.0;37.2903
73306;BME280;61530;51.158;0.880;2023-05-21T00:56:28;1017.79;;;10.9375;39.0308
73306;BME280;61530;51.158;0.880;2023-05-21T00:57:35;1017.81;;;11.0;38.1555
73306;BME280;61530;51.158;0.880;2023-05-21T00:58:38;1017.81;;;11.0;37.9118
73306;BME280;61530;51.158;0.880;2023-05-21T00:59:41;1017.8;;;10.9375;38.7649
73306;BME280;61530;51.158;0.880;2023-05-21T01:00:44;1017.79;;;10.9375;37.4273
73306;BME280;61530;51.158;0.880;2023-05-21T01:01:51;1017.81;;;10.9375;39.3304
73306;BME280;61530;51.158;0.880;2023-05-21T01:02:54;1017.79;;;10.9375;38.0735
73306;BME280;61530;51.158;0.880;2023-05-21T01:03:57;1017.79;;;10.9375;37.6431
73306;BME280;61530;51.158;0.880;2023-05-21T01:05:00;1017.79;;;10.875;38.4767
73306;BME280;61530;51.158;0.880;2023-05-21T01:06:07;1017.8;;;10.8125;37.4325
73306;BME280;61530;51.158;0.880;2023-05-21T01:07:09;1017.8;;;11.0;38.1883
73306;BME280;61530;51.158;0.880;2023-05-21T01:08:13;1017.75;;;10.9375;38.7424
73306;BME280;61530;51.158;0.880;2023-05-21T01:09:16;1017.76;;;10.9375;38.8521
73306;BME280;61530;51.158;0.880;2023-05-21T01:10:22;1017.76;;;10.9375;40.1007
73306;BME280;61530;51.158;0.880;2023-05-21T01:11:36;1017.72;;;11.0;39.226
73306;BME280;61530;51.158;0.880;2023-05-21T01:12:30;1017.7;;;10.9375;38.0207
73306;BME280;61530;51.158;0.880;2023-05-21T01:13:35;1017.69;;;11.0;37.7962
73306;BME280;61530;51.158;0.880;2023-05-21T01:14:39;1017.67;;;10.9375;38.0322
73306;BME280;61530;51.158;0.880;2023-05-21T01:15:42;1017.65;;;11.0;38.1371
73306;BME280;61530;51.158;0.880;2023-05-21T01:16:47;1017.63;;;11.0;38.3556
73306;BME280;61530;51.158;0.880;2023-05-21T01:17:48;1017.64;;;11.0;38.5058
73306;BME280;61530;51.158;0.880;2023-05-21T01:18:53;1017.63;;;11.0;35.9364
73306;BME280;61530;51.158;0.880;2023-05-21T01:19:57;1017.62;;;11.0625;37.9692
73306;BME280;61530;51.158;0.880;2023-05-21T01:21:01;1017.64;;;10.9375;38.6211
73306;BME280;61530;51.158;0.880;2023-05-21T01:22:06;1017.65;;;11.0;36.9082
73306;BME280;61530;51.158;0.880;2023-05-21T01:23:10;1017.68;;;11.0625;37.858
73306;BME280;61530;51.158;0.880;2023-05-21T01:24:14;1017.68;;;11.0;36.6918
73306;BME280;61530;51.158;0.880;2023-05-21T01:25:17;1017.67;;;11.1875;37.031
73306;BME280;61530;51.158;0.880;2023-05-21T01:26:20;1017.66;;;11.0625;36.489
73306;BME280;61530;51.158;0.880;2023-05-21T01:27:26;1017.65;;;11.0625;37.298
73306;BME280;61530;51.158;0.880;2023-05-21T01:28:29;1017.67;;;11.0;37.5058
73306;BME280;61530;51.158;0.880;2023-05-21T01:29:33;1017.66;;;10.9375;36.4924
73306;BME280;61530;51.158;0.880;2023-05-21T01:30:37;1017.64;;;11.0;37.225
73306;BME280;61530;51.158;0.880;2023-05-21T01:31:51;1017.65;;;11.0;37.0935
73306;BME280;61530;51.158;0.880;2023-05-21T01:32:49;1017.67;;;11.0625;39.0585
73306;BME280;61530;51.158;0.880;2023-05-21T01:33:51;1017.64;;;11.0625;38.4241
73306;BME280;61530;51.158;0.880;2023-05-21T01:34:58;1017.68;;;11.0;38.071
73306;BME280;61530;51.158;0.880;2023-05-21T01:36:03;1017.64;;;10.9375;36.6941
73306;BME280;61530;51.158;0.880;2023-05-21T01:37:11;1017.65;;;11.0625;38.3256
73306;BME280;61530;51.158;0.880;2023-05-21T01:38:11;1017.65;;;10.9375;35.8536
73306;BME280;61530;51.158;0.880;2023-05-21T01:39:14;1017.66;;;11.0625;37.1378
73306;BME280;61530;51.158;0.880;2023-05-21T01:40:20;1017.67;;;11.0;37.853
73306;BME280;61530;51.158;0.880;2023-05-21T01:41:17;1017.68;;;11.0;37.8651
73306;BME280;61530;51.158;0.880;2023-05-21T01:42:22;1017.65;;;11.0;37.0904
73306;BME280;61530;51.158;0.880;2023-05-21T01:43:25;1017.62;;;10.9375;38.4133
73306;BME280;61530;51.158;0.880;2023-05-21T01:44:30;1017.65;;;11.0;38.3601
73306;BME280;61530;51.158;0.880;2023-05-21T01:45:37;1017.59;;;11.0;37.3465
73306;BME280;61530;51.158;0.880;2023-05-21T01:46:37;1017.59;;;11.0;38.9261
73306;BME280;61530;51.158;0.880;2023-05-21T01:47:42;1017.56;;;11.0;37.3436
73306;BME280;61530;51.158;0.880;2023-05-21T01:48:47;1017.59;;;11.0;40.0432
73306;BME280;61530;51.158;0.880;2023-05-21T01:49:49;1017.59;;;10.9375;39.6865
73306;BME280;61530;51.158;0.880;2023-05-21T01:50:53;1017.55;;;11.0;39.4212
73306;BME280;61530;51.158;0.880;2023-05-21T01:51:56;1017.59;;;11.0;38.3838
73306;BME280;61530;51.158;0.880;2023-05-21T01:53:02;1017.57;;;11.0625;38.9718
73306;BME280;61530;51.158;0.880;2023-05-21T01:54:05;1017.6;;;11.0625;37.7321
73306;BME280;61530;51.158;0.880;2023-05-21T01:55:09;1017.56;;;11.0625;36.3134
73306;BME280;61530;51.158;0.880;2023-05-21T01:56:12;1017.58;;;11.0625;37.6793
73306;BME280;61530;51.158;0.880;2023-05-21T01:57:18;1017.54;;;11.0625;38.8682
73306;BME280;61530;51.158;0.880;2023-05-21T01:58:21;1017.54;;;11.0;37.9919
73306;BME280;61530;51.158;0.880;2023-05-21T01:59:25;1017.57;;;11.0;36.6185
73306;BME280;61530;51.158;0.880;2023-05-21T02:00:28;1017.54;;;11.0;38.1988
73306;BME280;61530;51.158;0.880;2023-05-21T02:01:34;1017.5;;;11.0;38.0248
73306;BME280;61530;51.158;0.880;2023-05-21T02:02:37;1017.51;;;11.0625;37.5462
73306;BME280;61530;51.158;0.880;2023-05-21T02:03:41;1017.5;;;11.0;37.4474
73306;BME280;61530;51.158;0.880;2023-05-21T02:04:44;1017.53;;;11.0625;38.7525
73306;BME280;61530;51.158;0.880;2023-05-21T02:05:50;1017.57;;;11.0;38.6889
73306;BME280;61530;51.158;0.880;2023-05-21T02:06:53;1017.53;;;11.0625;37.841
73306;BME280;61530;51.158;0.880;2023-05-21T02:07:57;1017.48;;;11.0625;38.8337
73306;BME280;61530;51.158;0.880;2023-05-21T02:09:00;1017.47;;;11.0;36.9545
73306;BME280;61530;51.158;0.880;2023-05-21T02:10:07;1017.46;;;10.875;36.1192
73306;BME280;61530;51.158;0.880;2023-05-21T02:11:09;1017.48;;;10.9375;38.3148
73306;BME280;61530;51.158;0.880;2023-05-21T02:12:12;1017.46;;;10.875;39.0416
73306;BME280;61530;51.158;0.880;2023-05-21T02:13:16;1017.48;;;10.9375;38.8508
73306;BME280;61530;51.158;0.880;2023-05-21T02:14:22;1017.49;;;11.0;37.5927
73306;BME280;61530;51.158;0.880;2023-05-21T02:15:25;1017.45;;;10.8125;39.0581
73306;BME280;61530;51.158;0.880;2023-05-21T02:16:29;1017.44;;;10.9375;38.58
73306;BME280;61530;51.158;0.880;2023-05-21T02:17:32;1017.43;;;11.0;39.1047
73306;BME280;61530;51.158;0.880;2023-05-21T02:18:37;1017.42;;;11.0;39.2196
73306;BME280;61530;51.158;0.880;2023-05-21T02:19:41;1017.41;;;11.0625;39.1737
73306;BME280;61530;51.158;0.880;2023-05-21T02:20:44;1017.4;;;11.0;39.1793
73306;BME280;61530;51.158;0.880;2023-05-21T02:21:48;1017.43;;;11.0625;38.3208
73306;BME280;61530;51.158;0.880;2023-05-21T02:22:54;1017.41;;;11.0;37.888
73306;BME280;61530;51.158;0.880;2023-05-21T02:23:57;1017.41;;;11.0;37.8772
73306;BME280;61530;51.158;0.880;2023-05-21T02:25:01;1017.37;;;11.0;39.0599
73306;BME280;61530;51.158;0.880;2023-05-21T02:26:04;1017.37;;;10.875;38.001
73306;BME280;61530;51.158;0.880;2023-05-21T02:27:10;1017.36;;;10.875;39.4912
73306;BME280;61530;51.158;0.880;2023-05-21T02:28:13;1017.38;;;10.9375;39.485
73306;BME280;61530;51.158;0.880;2023-05-21T02:29:17;1017.34;;;10.9375;39.5478
73306;BME280;61530;51.158;0.880;2023-05-21T02:30:20;1017.34;;;11.0;39.427
73306;BME280;61530;51.158;0.880;2023-05-21T02:31:26;1017.33;;;10.9375;39.7496
73306;BME280;61530;51.158;0.880;2023-05-21T02:32:29;1017.34;;;10.9375;38.7591
73306;BME280;61530;51.158;0.880;2023-05-21T02:33:33;1017.34;;;10.8125;38.2234
73306;BME280;61530;51.158;0.880;2023-05-21T02:34:36;1017.33;;;11.0;40.1121
73306;BME280;61530;51.158;0.880;2023-05-21T02:35:41;1017.36;;;10.9375;38.8105
73306;BME280;61530;51.158;0.880;2023-05-21T02:36:46;1017.3;;;10.9375;38.706
73306;BME280;61530;51.158;0.880;2023-05-21T02:37:49;1017.35;;;10.9375;38.9367
73306;BME280;61530;51.158;0.880;2023-05-21T02:38:52;1017.33;;;10.8125;39.358
73306;BME280;61530;51.158;0.880;2023-05-21T02:39:58;1017.37;;;10.875;39.2482
73306;BME280;61530;51.158;0.880;2023-05-21T02:41:01;1017.32;;;10.9375;38.1894
73306;BME280;61530;51.158;0.880;2023-05-21T02:42:05;1017.37;;;11.0;39.9914
73306;BME280;61530;51.158;0.880;2023-05-21T02:43:08;1017.39;;;10.875;39.0645
73306;BME280;61530;51.158;0.880;2023-05-21T02:44:14;1017.4;;;10.9375;40.0029
73306;BME280;61530;51.158;0.880;2023-05-21T02:45:17;1017.4;;;10.9375;40.3538
73306;BME280;61530;51.158;0.880;2023-05-21T02:46:21;1017.37;;;10.875;37.8788
73306;BME280;61530;51.158;0.880;2023-05-21T02:47:24;1017.4;;;10.9375;38.9373
73306;BME280;61530;51.158;0.880;2023-05-21T02:48:30;1017.4;;;11.0;40.1467
73306;BME280;61530;51.158;0.880;2023-05-21T02:49:33;1017.39;;;11.0;38.8512
73306;BME280;61530;51.158;0.880;2023-05-21T02:50:37;1017.43;;;10.9375;38.7057
73306;BME280;61530;51.158;0.880;2023-05-21T02:51:40;1017.41;;;11.0;38.5564
73306;BME280;61530;51.158;0.880;2023-05-21T02:52:46;1017.4;;;11.0;38.7294
73306;BME280;61530;51.158;0.880;2023-05-21T02:53:49;1017.39;;;10.9375;39.6053
73306;BME280;61530;51.158;0.880;2023-05-21T02:54:53;1017.39;;;11.0;39.3347
73306;BME280;61530;51.158;0.880;2023-05-21T02:55:56;1017.43;;;11.0;38.8103
73306;BME280;61530;51.158;0.880;2023-05-21T02:57:02;1017.4;;;10.875;39.2598
73306;BME280;61530;51.158;0.880;2023-05-21T02:58:05;1017.42;;;10.9375;39.4497
73306;BME280;61530;51.158;0.880;2023-05-21T02:59:09;1017.4;;;10.9375;39.468
73306;BME280;61530;51.158;0.880;2023-05-21T03:00:13;1017.42;;;10.9375;39.4039
73306;BME280;61530;51.158;0.880;2023-05-21T03:01:17;1017.41;;;10.9375;38.9658
73306;BME280;61530;51.158;0.880;2023-05-21T03:02:21;1017.41;;;10.9375;37.9932
73306;BME280;61530;51.158;0.880;2023-05-21T03:03:24;1017.41;;;10.875;40.5377
73306;BME280;61530;51.158;0.880;2023-05-21T03:04:28;1017.43;;;10.9375;40.2963
73306;BME280;61530;51.158;0.880;2023-05-21T03:05:34;1017.46;;;10.875;39.4042
73306;BME280;61530;51.158;0.880;2023-05-21T03:06:37;1017.47;;;10.875;39.9855
73306;BME280;61530;51.158;0.880;2023-05-21T03:07:41;1017.42;;;10.9375;41.2499
73306;BME280;61530;51.158;0.880;2023-05-21T03:08:44;1017.38;;;10.875;40.0661
73306;BME280;61530;51.158;0.880;2023-05-21T03:09:49;1017.4;;;10.875;39.6001
73306;BME280;61530;51.158;0.880;2023-05-21T03:10:53;1017.37;;;10.875;37.872
73306;BME280;61530;51.158;0.880;2023-05-21T03:11:57;1017.38;;;10.875;40.5265
73306;BME280;61530;51.158;0.880;2023-05-21T03:13:00;1017.41;;;10.8125;39.8763
73306;BME280;61530;51.158;0.880;2023-05-21T03:14:06;1017.4;;;10.8125;39.8935
73306;BME280;61530;51.158;0.880;2023-05-21T03:15:10;1017.38;;;10.75;39.3869
73306;BME280;61530;51.158;0.880;2023-05-21T03:16:13;1017.36;;;10.8125;39.9282
73306;BME280;61530;51.158;0.880;2023-05-21T03:17:16;1017.4;;;10.8125;40.0258
73306;BME280;61530;51.158;0.880;2023-05-21T03:18:22;1017.38;;;10.8125;40.6928
73306;BME280;61530;51.158;0.880;2023-05-21T03:19:25;1017.42;;;10.75;41.5374
73306;BME280;61530;51.158;0.880;2023-05-21T03:20:29;1017.41;;;10.8125;40.4685
73306;BME280;61530;51.158;0.880;2023-05-21T03:21:32;1017.43;;;10.75;41.0432
73306;BME280;61530;51.158;0.880;2023-05-21T03:22:38;1017.43;;;10.75;39.836
73306;BME280;61530;51.158;0.880;2023-05-21T03:23:41;1017.43;;;10.8125;41.7488
73306;BME280;61530;51.158;0.880;2023-05-21T03:24:45;1017.39;;;10.75;40.9863
73306;BME280;61530;51.158;0.880;2023-05-21T03:25:48;1017.39;;;10.8125;39.6345
73306;BME280;61530;51.158;0.880;2023-05-21T03:26:53;1017.38;;;10.8125;40.1409
73306;BME280;61530;51.158;0.880;2023-05-21T03:27:58;1017.37;;;10.75;39.8188
73306;BME280;61530;51.158;0.880;2023-05-21T03:29:00;1017.38;;;10.625;39.6521
73306;BME280;61530;51.158;0.880;2023-05-21T03:30:05;1017.43;;;10.6875;39.9683
73306;BME280;61530;51.158;0.880;2023-05-21T03:31:10;1017.43;;;10.6875;38.7649
73306;BME280;61530;51.158;0.880;2023-05-21T03:32:13;1017.45;;;10.8125;39.6113
73306;BME280;61530;51.158;0.880;2023-05-21T03:33:17;1017.44;;;10.75;40.4917
73306;BME280;61530;51.158;0.880;2023-05-21T03:34:20;1017.42;;;10.6875;39.6805
73306;BME280;61530;51.158;0.880;2023-05-21T03:35:26;1017.43;;;10.75;39.4901
73306;BME280;61530;51.158;0.880;2023-05-21T03:36:29;1017.44;;;10.75;39.7151
73306;BME280;61530;51.158;0.880;2023-05-21T03:37:32;1017.42;;;10.75;36.9814
73306;BME280;61530;51.158;0.880;2023-05-21T03:38:36;1017.44;;;10.75;39.8187
73306;BME280;61530;51.158;0.880;2023-05-21T03:39:42;1017.42;;;10.6875;41.7032
73306;BME280;61530;51.158;0.880;2023-05-21T03:40:45;1017.39;;;10.75;39.8647
73306;BME280;61530;51.158;0.880;2023-05-21T03:41:49;1017.39;;;10.6875;42.3161
73306;BME280;61530;51.158;0.880;2023-05-21T03:42:52;1017.39;;;10.6875;40.9688
73306;BME280;61530;51.158;0.880;2023-05-21T03:43:58;1017.38;;;10.6875;39.9279
73306;BME280;61530;51.158;0.880;2023-05-21T03:45:02;1017.39;;;10.6875;39.0753
73306;BME280;61530;51.158;0.880;2023-05-21T03:46:04;1017.42;;;10.75;38.5912
73306;BME280;61530;51.158;0.880;2023-05-21T03:47:08;1017.4;;;10.75;38.9602
73306;BME280;61530;51.158;0.880;2023-05-21T03:48:14;1017.39;;;10.8125;39.1219
73306;BME280;61530;51.158;0.880;2023-05-21T03:49:17;1017.42;;;10.8125;38.9597
73306;BME280;61530;51.158;0.880;2023-05-21T03:50:21;1017.43;;;10.8125;38.9714
73306;BME280;61530;51.158;0.880;2023-05-21T03:51:24;1017.44;;;10.875;38.4635
73306;BME280;61530;51.158;0.880;2023-05-21T03:52:30;1017.42;;;10.875;38.0362
73306;BME280;61530;51.158;0.880;2023-05-21T03:53:34;1017.45;;;10.875;38.1167
73306;BME280;61530;51.158;0.880;2023-05-21T03:54:37;1017.46;;;10.875;38.3309
73306;BME280;61530;51.158;0.880;2023-05-21T03:55:40;1017.48;;;10.875;38.3131
73306;BME280;61530;51.158;0.880;2023-05-21T03:56:46;1017.5;;;10.8125;38.3376
73306;BME280;61530;51.158;0.880;2023-05-21T03:57:49;1017.49;;;10.8125;38.7751
73306;BME280;61530;51.158;0.880;2023-05-21T03:58:53;1017.5;;;10.8125;38.5791
73306;BME280;61530;51.158;0.880;2023-05-21T03:59:56;1017.49;;;10.8125;38.9487
73306;BME280;61530;51.158;0.880;2023-05-21T04:01:02;1017.5;;;10.75;38.4128
73306;BME280;61530;51.158;0.880;2023-05-21T04:02:05;1017.51;;;10.75;39.249
73306;BME280;61530;51.158;0.880;2023-05-21T04:03:08;1017.49;;;10.75;37.5435
73306;BME280;61530;51.158;0.880;2023-05-21T04:04:12;1017.51;;;10.8125;39.5655
73306;BME280;61530;51.158;0.880;2023-05-21T04:05:18;1017.55;;;10.75;39.4446
73306;BME280;61530;51.158;0.880;2023-05-21T04:06:21;1017.53;;;10.75;39.2199
73306;BME280;61530;51.158;0.880;2023-05-21T04:07:25;1017.54;;;10.75;39.4558
73306;BME280;61530;51.158;0.880;2023-05-21T04:08:28;1017.55;;;10.6875;38.8748
73306;BME280;61530;51.158;0.880;2023-05-21T04:09:34;1017.55;;;10.6875;37.4934
73306;BME280;61530;51.158;0.880;2023-05-21T04:10:37;1017.56;;;10.6875;40.0547
73306;BME280;61530;51.158;0.880;2023-05-21T04:11:40;1017.55;;;10.625;38.7773
73306;BME280;61530;51.158;0.880;2023-05-21T04:12:44;1017.58;;;10.6875;39.6864
73306;BME280;61530;51.158;0.880;2023-05-21T04:13:50;1017.59;;;10.6875;38.7655
73306;BME280;61530;51.158;0.880;2023-05-21T04:14:53;1017.6;;;10.625;40.6466
73306;BME280;61530;51.158;0.880;2023-05-21T04:15:57;1017.56;;;10.625;39.4042
73306;BME280;61530;51.158;0.880;2023-05-21T04:17:00;1017.59;;;10.625;37.2316
73306;BME280;61530;51.158;0.880;2023-05-21T04:18:06;1017.56;;;10.625;38.5972
73306;BME280;61530;51.158;0.880;2023-05-21T04:19:09;1017.55;;;10.625;38.7472
73306;BME280;61530;51.158;0.880;2023-05-21T04:20:13;1017.54;;;10.5;38.7416
73306;BME280;61530;51.158;0.880;2023-05-21T04:21:16;1017.53;;;10.625;38.9377
73306;BME280;61530;51.158;0.880;2023-05-21T04:22:22;1017.51;;;10.5625;38.897
73306;BME280;61530;51.158;0.880;2023-05-21T04:23:25;1017.51;;;10.625;39.243
73306;BME280;61530;51.158;0.880;2023-05-21T04:24:29;1017.53;;;10.5;38.6209
73306;BME280;61530;51.158;0.880;2023-05-21T04:25:32;1017.5;;;10.5625;38.5627
73306;BME280;61530;51.158;0.880;2023-05-21T04:26:37;1017.51;;;10.5625;38.234
73306;BME280;61530;51.158;0.880;2023-05-21T04:27:41;1017.52;;;10.625;38.084
73306;BME280;61530;51.158;0.880;2023-05-21T04:28:44;1017.54;;;10.5;38.6033
73306;BME280;61530;51.158;0.880;2023-05-21T04:29:48;1017.53;;;10.5625;38.6501
73306;BME280;61530;51.158;0.880;2023-05-21T04:30:54;1017.51;;;10.5;37.9115
73306;BME280;61530;51.158;0.880;2023-05-21T04:31:57;1017.51;;;10.5625;36.2328
73306;BME280;61530;51.158;0.880;2023-05-21T04:33:01;1017.52;;;10.5;37.5762
73306;BME280;61530;51.158;0.880;2023-05-21T04:34:04;1017.53;;;10.625;38.0609
73306;BME280;61530;51.158;0.880;2023-05-21T04:35:10;1017.55;;;10.625;38.6254
73306;BME280;61530;51.158;0.880;2023-05-21T04:36:13;1017.52;;;10.5;38.1068
73306;BME280;61530;51.158;0.880;2023-05-21T04:37:16;1017.54;;;10.4375;39.1916
73306;BME280;61530;51.158;0.880;2023-05-21T04:38:20;1017.54;;;10.4375;38.8335
73306;BME280;61530;51.158;0.880;2023-05-21T04:39:26;1017.53;;;10.5625;38.309
73306;BME280;61530;51.158;0.880;2023-05-21T04:40:29;1017.54;;;10.4375;38.1478
73306;BME280;61530;51.158;0.880;2023-05-21T04:41:33;1017.55;;;10.4375;38.3323
73306;BME280;61530;51.158;0.880;2023-05-21T04:42:36;1017.51;;;10.5625;37.3536
73306;BME280;61530;51.158;0.880;2023-05-21T04:43:41;1017.58;;;10.5625;38.4532
73306;BME280;61530;51.158;0.880;2023-05-21T04:44:45;1017.61;;;10.5;38.049
73306;BME280;61530;51.158;0.880;2023-05-21T04:45:48;1017.56;;;10.5;38.0158
73306;BME280;61530;51.158;0.880;2023-05-21T04:46:52;1017.58;;;10.4375;37.821
73306;BME280;61530;51.158;0.880;2023-05-21T04:47:58;1017.57;;;10.4375;38.5639
73306;BME280;61530;51.158;0.880;2023-05-21T04:49:02;1017.6;;;10.4375;38.2753
73306;BME280;61530;51.158;0.880;2023-05-21T04:50:06;1017.57;;;10.4375;38.0906
73306;BME280;61530;51.158;0.880;2023-05-21T04:51:08;1017.59;;;10.5;38.2808
73306;BME280;61530;51.158;0.880;2023-05-21T04:52:14;1017.59;;;10.4375;37.8431
73306;BME280;61530;51.158;0.880;2023-05-21T04:53:17;1017.57;;;10.4375;37.424
73306;BME280;61530;51.158;0.880;2023-05-21T04:54:20;1017.59;;;10.375;39.3875
73306;BME280;61530;51.158;0.880;2023-05-21T04:55:24;1017.58;;;10.375;38.8459
73306;BME280;61530;51.158;0.880;2023-05-21T04:56:30;1017.6;;;10.3125;38.8464
73306;BME280;61530;51.158;0.880;2023-05-21T04:57:33;1017.6;;;10.3125;39.5261
73306;BME280;61530;51.158;0.880;2023-05-21T04:58:37;1017.6;;;10.25;41.0423
73306;BME280;61530;51.158;0.880;2023-05-21T04:59:40;1017.61;;;10.25;40.4913
73306;BME280;61530;51.158;0.880;2023-05-21T05:00:46;1017.55;;;10.25;39.7155
73306;BME280;61530;51.158;0.880;2023-05-21T05:01:49;1017.55;;;10.375;38.9502
73306;BME280;61530;51.158;0.880;2023-05-21T05:02:52;1017.54;;;10.375;39.2723
73306;BME280;61530;51.158;0.880;2023-05-21T05:03:56;1017.53;;;10.375;39.0418
73306;BME280;61530;51.158;0.880;2023-05-21T05:05:02;1017.55;;;10.3125;38.3996
73306;BME280;61530;51.158;0.880;2023-05-21T05:06:05;1017.54;;;10.25;38.2709
73306;BME280;61530;51.158;0.880;2023-05-21T05:07:09;1017.57;;;10.25;38.5182
73306;BME280;61530;51.158;0.880;2023-05-21T05:08:12;1017.57;;;10.25;37.252
73306;BME280;61530;51.158;0.880;2023-05-21T05:09:18;1017.57;;;10.375;38.7884
73306;BME280;61530;51.158;0.880;2023-05-21T05:10:21;1017.55;;;10.3125;38.4885
73306;BME280;61530;51.158;0.880;2023-05-21T05:11:25;1017.57;;;10.25;38.6966
73306;BME280;61530;51.158;0.880;2023-05-21T05:12:28;1017.55;;;10.1875;39.0253
73306;BME280;61530;51.158;0.880;2023-05-21T05:13:34;1017.52;;;10.3125;39.0762
73306;BME280;61530;51.158;0.880;2023-05-21T05:14:37;1017.53;;;10.3125;39.1569
73306;BME280;61530;51.158;0.880;2023-05-21T05:15:41;1017.54;;;10.4375;38.9383
73306;BME280;61530;51.158;0.880;2023-05-21T05:16:44;1017.54;;;10.4375;38.8748
73306;BME280;61530;51.158;0.880;2023-05-21T05:17:49;1017.5;;;10.4375;38.3797
73306;BME280;61530;51.158;0.880;2023-05-21T05:18:53;1017.49;;;10.5625;38.3671
73306;BME280;61530;51.158;0.880;2023-05-21T05:19:56;1017.48;;;10.5;38.1996
73306;BME280;61530;51.158;0.880;2023-05-21T05:21:00;1017.51;;;10.5625;38.9373
73306;BME280;61530;51.158;0.880;2023-05-21T05:22:06;1017.48;;;10.625;38.5856
73306;BME280;61530;51.158;0.880;2023-05-21T05:23:09;1017.5;;;10.625;37.5545
73306;BME280;61530;51.158;0.880;2023-05-21T05:24:13;1017.5;;;10.5;38.6625
73306;BME280;61530;51.158;0.880;2023-05-21T05:25:16;1017.52;;;10.5625;39.3178
73306;BME280;61530;51.158;0.880;2023-05-21T05:26:21;1017.48;;;10.5625;39.0527
73306;BME280;61530;51.158;0.880;2023-05-21T05:27:25;1017.46;;;10.5625;38.5911
73306;BME280;61530;51.158;0.880;2023-05-21T05:28:28;1017.48;;;10.625;38.1299
73306;BME280;61530;51.158;0.880;2023-05-21T05:29:32;1017.48;;;10.625;38.1126
73306;BME280;61530;51.158;0.880;2023-05-21T05:30:38;1017.45;;;10.75;38.1132
73306;BME280;61530;51.158;0.880;2023-05-21T05:31:41;1017.43;;;10.625;38.1931